createdAt,value
2023-03-05T00:03:29.277Z,719.88
2023-03-05T00:08:32.179Z,719.50
2023-03-05T00:13:34.526Z,723.63
2023-03-05T00:18:37.024Z,713.53
2023-03-05T00:23:39.045Z,709.13
2023-03-05T00:28:40.982Z,714.00
2023-03-05T00:33:43.720Z,719.88
2023-03-05T00:38:45.612Z,719.60
2023-03-05T00:43:48.571Z,719.35
2023-03-05T00:48:50.475Z,715.25
2023-03-05T00:53:53.685Z,708.40
2023-03-05T00:58:56.076Z,698.90
2023-03-05T01:03:59.578Z,702.93
2023-03-05T01:09:01.476Z,699.27
2023-03-05T01:14:03.393Z,712.27
2023-03-05T01:19:05.301Z,706.83
2023-03-05T01:24:08.330Z,725.50
2023-03-05T01:29:10.206Z,712.57
2023-03-05T01:34:12.137Z,726.60
2023-03-05T01:39:14.035Z,726.55
2023-03-05T01:44:36.175Z,704.77
2023-03-05T01:49:41.770Z,728.97
2023-03-05T01:54:50.813Z,717.92
2023-03-05T01:59:57.639Z,700.67
2023-03-05T02:05:13.596Z,700.45
2023-03-05T02:10:24.767Z,709.37
2023-03-05T02:15:28.226Z,727.00
2023-03-05T02:20:43.533Z,725.58
2023-03-05T02:25:45.774Z,734.28
2023-03-05T02:30:47.700Z,732.35
2023-03-05T02:35:49.760Z,734.45
2023-03-05T02:40:51.796Z,732.03
2023-03-05T02:45:54.043Z,727.92
2023-03-05T02:50:56.477Z,729.08
2023-03-05T02:55:58.487Z,729.47
2023-03-05T03:01:01.982Z,729.78
2023-03-05T03:06:04.483Z,740.17
2023-03-05T03:11:12.548Z,731.58
2023-03-05T03:16:15.860Z,730.72
2023-03-05T03:21:21.171Z,725.92
2023-03-05T03:26:23.250Z,725.42
2023-03-05T03:31:25.081Z,735.15
2023-03-05T03:36:26.951Z,735.58
2023-03-05T03:41:28.811Z,732.35
2023-03-05T03:46:31.113Z,722.33
2023-03-05T03:51:33.163Z,723.00
2023-03-05T03:56:35.011Z,710.17
2023-03-05T04:01:37.399Z,718.15
2023-03-05T04:06:39.588Z,721.28
2023-03-05T04:11:41.516Z,716.53
2023-03-05T04:16:43.436Z,713.72
2023-03-05T04:21:45.403Z,721.35
2023-03-05T04:26:47.258Z,714.58
2023-03-05T04:31:49.120Z,716.78
2023-03-05T04:36:50.945Z,711.05
2023-03-05T04:41:52.755Z,716.65
2023-03-05T04:46:54.619Z,711.63
2023-03-05T04:51:57.565Z,714.15
2023-03-05T04:56:59.465Z,714.22
2023-03-05T05:02:01.333Z,716.42
2023-03-05T05:07:04.807Z,716.58
2023-03-05T05:12:07.224Z,720.45
2023-03-05T05:17:09.373Z,712.00
2023-03-05T05:22:11.315Z,711.47
2023-03-05T05:27:13.395Z,710.33
2023-03-05T05:32:15.219Z,719.38
2023-03-05T05:37:17.129Z,721.50
2023-03-05T05:42:20.629Z,722.75
2023-03-05T05:47:22.596Z,729.67
2023-03-05T05:52:24.665Z,726.35
2023-03-05T05:57:26.571Z,709.90
2023-03-05T06:02:28.444Z,710.95
2023-03-05T06:07:31.643Z,704.58
2023-03-05T06:12:33.446Z,710.67
2023-03-05T06:17:35.285Z,710.33
2023-03-05T06:22:38.486Z,706.45
2023-03-05T06:27:40.493Z,708.63
2023-03-05T06:32:42.433Z,709.65
2023-03-05T06:37:44.933Z,702.67
2023-03-05T06:42:46.741Z,708.45
2023-03-05T06:47:48.599Z,706.47
2023-03-05T06:52:50.530Z,704.47
2023-03-05T06:57:52.380Z,695.57
2023-03-05T07:02:54.237Z,695.38
2023-03-05T07:07:56.187Z,698.47
2023-03-05T07:12:58.884Z,700.53
2023-03-05T07:18:00.913Z,699.85
2023-03-05T07:23:03.715Z,698.15
2023-03-05T07:28:07.081Z,700.85
2023-03-05T07:33:08.910Z,694.03
2023-03-05T07:38:10.709Z,693.63
2023-03-05T07:43:12.607Z,699.37
2023-03-05T07:48:21.019Z,696.77
2023-03-05T07:53:23.186Z,693.67
2023-03-05T07:58:25.054Z,699.17
2023-03-05T08:03:26.928Z,695.07
2023-03-05T08:08:29.992Z,698.50
2023-03-05T08:13:31.964Z,706.43
2023-03-05T08:18:34.339Z,696.67
2023-03-05T08:23:36.289Z,696.83
2023-03-05T08:28:38.429Z,697.13
2023-03-05T08:33:40.744Z,698.08
2023-03-05T08:38:44.561Z,698.50
2023-03-05T08:43:46.569Z,697.37
2023-03-05T08:48:48.485Z,699.43
2023-03-05T08:53:50.404Z,700.00
2023-03-05T08:58:53.063Z,699.07
2023-03-05T09:03:54.989Z,698.10
2023-03-05T09:08:56.951Z,697.00
2023-03-05T09:13:58.919Z,699.53
2023-03-05T09:19:00.803Z,713.73
2023-03-05T09:24:03.503Z,731.55
2023-03-05T09:29:07.627Z,730.75
2023-03-05T09:34:11.790Z,730.70
2023-03-05T09:39:13.753Z,734.75
2023-03-05T09:44:31.452Z,730.92
2023-03-05T09:49:59.456Z,738.15
2023-03-05T09:55:01.965Z,738.85
2023-03-05T10:00:20.765Z,741.60
2023-03-05T10:05:55.733Z,739.03
2023-03-05T10:11:02.146Z,746.05
2023-03-05T10:16:41.930Z,739.15
2023-03-05T10:22:07.266Z,812.00
2023-03-05T10:27:18.847Z,740.83
2023-03-05T10:33:15.019Z,743.85
2023-03-05T10:38:44.722Z,740.50
2023-03-05T10:43:56.366Z,742.17
2023-03-05T10:49:26.700Z,755.22
2023-03-05T10:54:30.848Z,740.07
2023-03-05T10:59:33.549Z,626.45
2023-03-05T11:04:38.771Z,659.30
2023-03-05T11:09:42.220Z,755.10
2023-03-05T11:14:47.633Z,767.08
2023-03-05T11:19:49.702Z,757.35
2023-03-05T11:25:10.363Z,765.05
2023-03-05T11:30:21.132Z,765.85
2023-03-05T11:35:32.900Z,774.78
2023-03-05T11:40:38.070Z,762.63
2023-03-05T11:45:40.985Z,774.05
2023-03-05T11:50:45.388Z,774.88
2023-03-05T11:55:54.588Z,775.58
2023-03-05T12:00:57.629Z,774.55
2023-03-05T12:06:27.325Z,759.58
2023-03-05T12:11:33.901Z,767.25
2023-03-05T12:16:51.022Z,773.03
2023-03-05T12:21:53.358Z,776.40
2023-03-05T12:27:07.353Z,773.95
2023-03-05T12:32:34.134Z,778.33
2023-03-05T12:37:57.340Z,777.88
2023-03-05T12:43:02.152Z,773.60
2023-03-05T12:48:03.957Z,777.17
2023-03-05T12:53:11.817Z,780.05
2023-03-05T12:58:19.077Z,781.00
2023-03-05T13:03:32.947Z,778.42
2023-03-05T13:08:37.281Z,781.33
2023-03-05T13:13:44.287Z,776.53
2023-03-05T13:18:48.354Z,773.03
2023-03-05T13:23:57.876Z,769.33
2023-03-05T13:29:07.325Z,771.95
2023-03-05T13:34:47.493Z,770.83
2023-03-05T13:39:54.474Z,768.03
2023-03-05T13:45:26.951Z,766.20
2023-03-05T13:50:32.227Z,762.90
2023-03-05T13:55:34.177Z,741.73
2023-03-05T14:00:38.828Z,746.92
2023-03-05T14:05:45.433Z,746.25
2023-03-05T14:10:47.790Z,746.17
2023-03-05T14:16:09.401Z,750.55
2023-03-05T14:21:12.443Z,747.05
2023-03-05T14:26:23.620Z,746.35
2023-03-05T14:31:26.879Z,747.20
2023-03-05T14:36:30.517Z,739.97
2023-03-05T14:41:34.818Z,742.25
2023-03-05T14:46:36.680Z,743.65
2023-03-05T14:51:42.406Z,745.50
2023-03-05T14:56:44.344Z,739.92
2023-03-05T15:01:46.402Z,746.25
2023-03-05T15:06:51.174Z,740.28
2023-03-05T15:11:53.049Z,743.35
2023-03-05T15:16:55.303Z,738.47
2023-03-05T15:21:57.336Z,746.15
2023-03-05T15:26:59.192Z,734.70
2023-03-05T15:32:03.720Z,736.65
2023-03-05T15:37:05.732Z,737.03
2023-03-05T15:42:07.727Z,741.17
2023-03-05T15:47:09.868Z,741.25
2023-03-05T15:52:11.861Z,738.75
2023-03-05T15:57:13.848Z,743.33
2023-03-05T16:02:15.793Z,739.90
2023-03-05T16:07:17.832Z,741.58
2023-03-05T16:12:24.101Z,749.00
2023-03-05T16:17:26.068Z,598.30
2023-03-05T16:22:28.007Z,487.70
2023-03-05T16:27:30.092Z,586.65
2023-03-05T16:32:32.174Z,581.40
2023-03-05T16:37:34.051Z,516.90
2023-03-05T16:42:36.179Z,524.58
2023-03-05T16:47:38.782Z,538.22
2023-03-05T16:52:40.873Z,543.35
2023-03-05T16:57:42.970Z,509.02
2023-03-05T17:02:45.720Z,494.00
2023-03-05T17:07:47.817Z,490.50
2023-03-05T17:12:52.727Z,487.45
2023-03-05T17:17:54.626Z,474.27
2023-03-05T17:22:56.508Z,458.42
2023-03-05T17:27:58.521Z,442.65
2023-03-05T17:33:00.733Z,413.98
2023-03-05T17:38:04.572Z,440.40
2023-03-05T17:43:06.506Z,427.83
2023-03-05T17:48:11.232Z,446.45
2023-03-05T17:53:13.380Z,488.63
2023-03-05T17:58:15.319Z,510.70
2023-03-05T18:03:17.566Z,490.88
2023-03-05T18:08:19.416Z,475.17
2023-03-05T18:13:21.598Z,452.95
2023-03-05T18:18:23.446Z,492.40
2023-03-05T18:23:25.292Z,544.38
2023-03-05T18:28:27.175Z,574.22
2023-03-05T18:33:29.100Z,545.65
2023-03-05T18:38:32.039Z,578.05
2023-03-05T18:43:34.681Z,562.20
2023-03-05T18:48:36.589Z,579.72
2023-03-05T18:53:39.139Z,564.97
2023-03-05T18:58:41.161Z,558.58
2023-03-05T19:03:44.048Z,549.85
2023-03-05T19:08:46.611Z,539.80
2023-03-05T19:13:50.260Z,534.85
2023-03-05T19:19:24.592Z,527.78
2023-03-05T19:24:31.119Z,531.72
2023-03-05T19:29:34.333Z,573.70
2023-03-05T19:34:36.782Z,605.83
2023-03-05T19:39:39.327Z,654.83
2023-03-05T19:44:41.302Z,619.00
2023-03-05T19:49:43.157Z,599.90
2023-03-05T19:54:44.992Z,612.55
2023-03-05T19:59:46.904Z,592.85
2023-03-05T20:04:49.646Z,619.17
2023-03-05T20:09:53.252Z,605.10
2023-03-05T20:14:55.157Z,642.28
2023-03-05T20:19:59.106Z,632.72
2023-03-05T20:25:00.979Z,655.20
2023-03-05T20:30:05.222Z,670.05
2023-03-05T20:35:12.605Z,682.28
2023-03-05T20:40:14.620Z,662.63
2023-03-05T20:45:16.553Z,630.65
2023-03-05T20:50:19.777Z,678.92
2023-03-05T20:55:23.433Z,723.90
2023-03-05T21:00:25.881Z,694.42
2023-03-05T21:05:32.663Z,685.38
2023-03-05T21:10:34.634Z,716.30
2023-03-05T21:15:40.857Z,727.83
2023-03-05T21:20:42.780Z,737.58
2023-03-05T21:25:44.823Z,730.88
2023-03-05T21:30:49.793Z,718.90
2023-03-05T21:35:52.999Z,729.78
2023-03-05T21:40:54.893Z,730.88
2023-03-05T21:45:57.869Z,728.88
2023-03-05T21:51:00.249Z,727.67
2023-03-05T21:56:26.004Z,724.63
2023-03-05T22:01:28.019Z,723.92
2023-03-05T22:06:30.227Z,732.88
2023-03-05T22:11:32.149Z,728.03
2023-03-05T22:16:34.358Z,725.22
2023-03-05T22:21:36.245Z,719.33
2023-03-05T22:26:40.683Z,713.97
2023-03-05T22:31:42.554Z,707.65
2023-03-05T22:36:44.503Z,711.55
2023-03-05T22:41:46.323Z,728.10
2023-03-05T22:46:48.201Z,726.35
2023-03-05T22:51:53.158Z,718.88
2023-03-05T22:56:55.444Z,721.55
2023-03-05T23:01:57.315Z,700.20
2023-03-05T23:06:59.166Z,706.53
2023-03-05T23:12:01.001Z,710.08
2023-03-05T23:17:03.763Z,699.47
2023-03-05T23:22:07.641Z,693.63
2023-03-05T23:27:13.473Z,707.25
2023-03-05T23:32:15.400Z,699.65
2023-03-05T23:37:17.375Z,701.90
2023-03-05T23:42:19.207Z,699.70
2023-03-05T23:47:21.062Z,696.38
2023-03-05T23:52:22.948Z,701.87
2023-03-05T23:57:25.111Z,705.20
